createdAt,value
2023-03-03T00:01:03.579Z,102164.97
2023-03-03T00:03:31.416Z,102178.50
2023-03-03T00:05:59.758Z,102170.59
2023-03-03T00:08:29.078Z,102171.84
2023-03-03T00:10:56.763Z,102184.22
2023-03-03T00:13:27.159Z,102183.41
2023-03-03T00:15:59.749Z,102189.50
2023-03-03T00:18:32.430Z,102180.69
2023-03-03T00:21:02.009Z,102184.50
2023-03-03T00:23:38.124Z,102185.56
2023-03-03T00:26:20.323Z,102186.44
2023-03-03T00:28:49.523Z,102186.56
2023-03-03T00:31:20.575Z,102191.72
2023-03-03T00:33:54.672Z,102197.53
2023-03-03T00:36:37.688Z,102196.38
2023-03-03T00:39:27.842Z,102205.34
2023-03-03T00:41:55.888Z,102205.81
2023-03-03T00:44:41.145Z,102213.97
2023-03-03T00:47:28.741Z,102209.63
2023-03-03T00:50:21.223Z,102214.84
2023-03-03T00:53:01.622Z,102212.94
2023-03-03T00:55:31.306Z,102226.19
2023-03-03T00:57:59.410Z,102213.28
2023-03-03T01:00:27.217Z,102212.94
2023-03-03T01:02:54.972Z,102210.81
2023-03-03T01:05:22.993Z,102197.97
2023-03-03T01:07:50.634Z,102202.09
2023-03-03T01:10:18.522Z,102209.72
2023-03-03T01:12:47.912Z,102210.22
2023-03-03T01:15:16.616Z,102212.94
2023-03-03T01:17:44.625Z,102206.59
2023-03-03T01:20:14.563Z,102210.22
2023-03-03T01:22:42.846Z,102205.97
2023-03-03T01:25:11.242Z,102213.13
2023-03-03T01:27:39.023Z,102219.72
2023-03-03T01:30:09.646Z,102206.75
2023-03-03T01:32:37.439Z,102220.63
2023-03-03T01:35:06.263Z,102207.31
2023-03-03T01:37:35.552Z,102212.91
2023-03-03T01:40:03.320Z,102205.81
2023-03-03T01:42:31.637Z,102203.75
2023-03-03T01:45:26.381Z,102208.81
2023-03-03T01:48:00.987Z,102206.84
2023-03-03T01:50:44.744Z,102205.22
2023-03-03T01:53:16.937Z,102204.22
2023-03-03T01:55:46.446Z,102198.25
2023-03-03T01:58:17.924Z,102206.03
2023-03-03T02:00:51.555Z,102199.63
2023-03-03T02:03:21.628Z,102196.91
2023-03-03T02:05:50.955Z,102204.78
2023-03-03T02:08:27.211Z,102199.44
2023-03-03T02:10:55.869Z,102195.34
2023-03-03T02:13:23.558Z,102202.66
2023-03-03T02:15:52.662Z,102201.88
2023-03-03T02:18:21.816Z,102197.38
2023-03-03T02:20:58.597Z,102199.06
2023-03-03T02:23:34.436Z,102200.91
2023-03-03T02:26:09.928Z,102204.59
2023-03-03T02:28:39.772Z,102198.13
2023-03-03T02:31:10.962Z,102203.06
2023-03-03T02:33:38.847Z,102200.41
2023-03-03T02:36:07.268Z,102202.19
2023-03-03T02:38:42.271Z,102197.97
2023-03-03T02:41:18.263Z,102209.44
2023-03-03T02:43:55.519Z,102219.78
2023-03-03T02:46:23.292Z,102207.47
2023-03-03T02:48:51.024Z,102207.22
2023-03-03T02:51:18.784Z,102205.69
2023-03-03T02:53:46.577Z,102218.91
2023-03-03T02:56:15.692Z,102218.91
2023-03-03T02:58:43.441Z,102216.81
2023-03-03T03:01:11.263Z,102207.53
2023-03-03T03:03:39.335Z,102206.06
2023-03-03T03:06:07.923Z,102204.63
2023-03-03T03:08:35.600Z,102212.47
2023-03-03T03:11:03.421Z,102214.31
2023-03-03T03:13:33.328Z,102205.63
2023-03-03T03:16:01.907Z,102218.44
2023-03-03T03:18:29.711Z,102216.56
2023-03-03T03:20:57.513Z,102214.53
2023-03-03T03:23:25.177Z,102217.66
2023-03-03T03:25:52.905Z,102224.38
2023-03-03T03:28:20.578Z,102226.16
2023-03-03T03:30:52.834Z,102223.53
2023-03-03T03:33:20.535Z,102228.28
2023-03-03T03:35:48.312Z,102223.16
2023-03-03T03:38:16.370Z,102220.44
2023-03-03T03:40:44.673Z,102235.56
2023-03-03T03:43:12.424Z,102235.16
2023-03-03T03:45:40.137Z,102228.59
2023-03-03T03:48:09.432Z,102236.22
2023-03-03T03:50:37.638Z,102239.69
2023-03-03T03:53:05.476Z,102246.78
2023-03-03T03:55:33.552Z,102243.75
2023-03-03T03:58:04.300Z,102243.94
2023-03-03T04:00:32.105Z,102242.94
2023-03-03T04:02:59.948Z,102240.50
2023-03-03T04:05:29.466Z,102253.53
2023-03-03T04:07:57.149Z,102257.78
2023-03-03T04:10:24.857Z,102252.72
2023-03-03T04:12:52.600Z,102261.56
2023-03-03T04:15:20.428Z,102243.63
2023-03-03T04:17:48.101Z,102246.97
2023-03-03T04:20:16.626Z,102247.16
2023-03-03T04:22:45.931Z,102245.50
2023-03-03T04:25:19.014Z,102245.84
2023-03-03T04:27:46.897Z,102241.66
2023-03-03T04:30:19.497Z,102239.63
2023-03-03T04:32:55.256Z,102243.22
2023-03-03T04:35:23.207Z,102244.34
2023-03-03T04:37:59.801Z,102245.25
2023-03-03T04:40:28.198Z,102241.53
2023-03-03T04:42:56.222Z,102232.78
2023-03-03T04:45:24.091Z,102247.13
2023-03-03T04:47:51.937Z,102245.59
2023-03-03T04:50:23.334Z,102252.53
2023-03-03T04:52:52.782Z,102244.41
2023-03-03T04:55:20.755Z,102247.00
2023-03-03T04:57:48.836Z,102248.03
2023-03-03T05:00:17.386Z,102244.41
2023-03-03T05:02:48.758Z,102248.94
2023-03-03T05:05:16.984Z,102248.03
2023-03-03T05:07:44.894Z,102246.50
2023-03-03T05:10:14.485Z,102244.03
2023-03-03T05:12:42.487Z,102248.47
2023-03-03T05:15:11.171Z,102248.81
2023-03-03T05:17:38.986Z,102238.41
2023-03-03T05:20:08.555Z,102259.38
2023-03-03T05:22:36.359Z,102256.47
2023-03-03T05:25:04.782Z,102251.66
2023-03-03T05:27:33.925Z,102256.94
2023-03-03T05:30:01.748Z,102254.66
2023-03-03T05:32:29.645Z,102257.28
2023-03-03T05:34:59.737Z,102258.03
2023-03-03T05:37:27.704Z,102253.97
2023-03-03T05:39:55.476Z,102256.53
2023-03-03T05:42:23.480Z,102256.88
2023-03-03T05:44:52.787Z,102257.81
2023-03-03T05:47:20.701Z,102260.53
2023-03-03T05:49:49.031Z,102270.56
2023-03-03T05:52:18.697Z,102262.16
2023-03-03T05:54:46.565Z,102261.34
2023-03-03T05:57:14.438Z,102261.50
2023-03-03T05:59:42.366Z,102265.88
2023-03-03T06:02:12.137Z,102265.69
2023-03-03T06:04:40.006Z,102263.09
2023-03-03T06:07:08.104Z,102259.94
2023-03-03T06:09:37.050Z,102260.69
2023-03-03T06:12:06.028Z,102268.25
2023-03-03T06:14:34.304Z,102269.53
2023-03-03T06:17:02.273Z,102273.19
2023-03-03T06:19:31.535Z,102280.22
2023-03-03T06:22:00.875Z,102281.56
2023-03-03T06:24:30.600Z,102296.06
2023-03-03T06:26:58.589Z,102296.81
2023-03-03T06:29:26.660Z,102293.28
2023-03-03T06:31:55.039Z,102296.94
2023-03-03T06:34:22.959Z,102301.13
2023-03-03T06:36:52.416Z,102300.97
2023-03-03T06:39:20.466Z,102308.28
2023-03-03T06:41:48.287Z,102304.25
2023-03-03T06:44:16.207Z,102318.81
2023-03-03T06:46:43.957Z,102311.44
2023-03-03T06:49:11.752Z,102310.97
2023-03-03T06:51:40.504Z,102314.81
2023-03-03T06:54:13.673Z,102319.41
2023-03-03T06:56:42.918Z,102311.63
2023-03-03T06:59:15.801Z,102323.09
2023-03-03T07:01:44.844Z,102323.41
2023-03-03T07:04:23.365Z,102323.03
2023-03-03T07:06:51.389Z,102327.69
2023-03-03T07:09:24.984Z,102334.09
2023-03-03T07:11:53.285Z,102327.16
2023-03-03T07:14:22.177Z,102319.91
2023-03-03T07:16:55.183Z,102334.84
2023-03-03T07:19:31.916Z,102333.03
2023-03-03T07:21:59.750Z,102337.00
2023-03-03T07:24:30.809Z,102341.66
2023-03-03T07:27:07.802Z,102344.59
2023-03-03T07:29:35.678Z,102348.53
2023-03-03T07:32:04.445Z,102349.75
2023-03-03T07:34:42.565Z,102346.03
2023-03-03T07:37:17.573Z,102342.19
2023-03-03T07:39:49.464Z,102353.66
2023-03-03T07:42:22.889Z,102356.75
2023-03-03T07:44:54.037Z,102355.97
2023-03-03T07:47:25.008Z,102368.91
2023-03-03T07:49:54.341Z,102365.88
2023-03-03T07:52:27.087Z,102364.50
2023-03-03T07:54:58.758Z,102369.94
2023-03-03T07:57:28.641Z,102371.69
2023-03-03T08:00:02.198Z,102376.63
2023-03-03T08:02:46.841Z,102385.56
2023-03-03T08:05:35.282Z,102385.69
2023-03-03T08:08:17.875Z,102390.91
2023-03-03T08:10:49.492Z,102393.00
2023-03-03T08:13:20.393Z,102389.78
2023-03-03T08:15:51.700Z,102402.84
2023-03-03T08:18:24.866Z,102396.88
2023-03-03T08:20:55.532Z,102397.31
2023-03-03T08:23:23.558Z,102397.84
2023-03-03T08:25:53.364Z,102391.09
2023-03-03T08:28:22.537Z,102396.53
2023-03-03T08:30:50.811Z,102398.44
2023-03-03T08:33:19.532Z,102407.03
2023-03-03T08:35:48.343Z,102408.41
2023-03-03T08:38:20.165Z,102399.13
2023-03-03T08:40:49.217Z,102408.25
2023-03-03T08:43:21.560Z,102413.59
2023-03-03T08:45:51.273Z,102402.22
2023-03-03T08:48:19.988Z,102411.03
2023-03-03T08:50:48.606Z,102415.56
2023-03-03T08:53:17.831Z,102410.97
2023-03-03T08:55:46.193Z,102414.06
2023-03-03T08:58:14.770Z,102408.63
2023-03-03T09:00:45.637Z,102418.13
2023-03-03T09:03:14.373Z,102413.63
2023-03-03T09:05:42.540Z,102420.31
2023-03-03T09:08:10.772Z,102424.44
2023-03-03T09:10:39.639Z,102427.53
2023-03-03T09:13:13.720Z,102435.72
2023-03-03T09:15:43.144Z,102434.94
2023-03-03T09:18:19.532Z,102438.53
2023-03-03T09:20:49.027Z,102446.22
2023-03-03T09:23:32.136Z,102446.88
2023-03-03T09:26:13.644Z,102443.16
2023-03-03T09:28:43.646Z,102446.19
2023-03-03T09:31:25.499Z,102443.00
2023-03-03T09:33:57.589Z,102447.00
2023-03-03T09:36:27.703Z,102445.59
2023-03-03T09:38:56.914Z,102447.53
2023-03-03T09:41:48.664Z,102450.19
2023-03-03T09:44:55.470Z,102443.16
2023-03-03T09:47:48.531Z,102462.81
2023-03-03T09:50:27.935Z,102456.06
2023-03-03T09:53:10.716Z,102451.00
2023-03-03T09:55:44.629Z,102450.19
2023-03-03T09:58:32.662Z,102453.75
2023-03-03T10:01:11.374Z,102455.69
2023-03-03T10:03:54.129Z,102456.31
2023-03-03T10:06:28.839Z,102456.41
2023-03-03T10:09:28.897Z,102455.97
2023-03-03T10:12:02.710Z,102457.44
2023-03-03T10:14:50.600Z,102461.97
2023-03-03T10:17:27.435Z,102458.44
2023-03-03T10:20:13.407Z,102456.53
2023-03-03T10:22:50.502Z,102451.53
2023-03-03T10:25:27.582Z,102462.66
2023-03-03T10:28:07.975Z,102470.66
2023-03-03T10:31:02.021Z,102469.28
2023-03-03T10:33:39.226Z,102468.00
2023-03-03T10:36:30.669Z,102470.16
2023-03-03T10:39:13.825Z,102475.66
2023-03-03T10:42:16.189Z,102471.97
2023-03-03T10:44:55.037Z,102473.56
2023-03-03T10:47:48.831Z,102469.28
2023-03-03T10:50:27.648Z,102478.28
2023-03-03T10:53:11.921Z,102473.56
2023-03-03T10:55:50.100Z,102474.03
2023-03-03T10:58:47.446Z,102470.50
2023-03-03T11:01:27.497Z,102470.31
2023-03-03T11:04:44.252Z,102471.66
2023-03-03T11:07:19.972Z,102471.97
2023-03-03T11:10:01.858Z,102466.09
2023-03-03T11:12:41.022Z,102462.13
2023-03-03T11:15:22.789Z,102469.63
2023-03-03T11:18:02.387Z,102470.84
2023-03-03T11:20:38.806Z,102469.00
2023-03-03T11:23:25.516Z,102467.75
2023-03-03T11:26:07.558Z,102459.66
2023-03-03T11:29:02.329Z,102460.88
2023-03-03T11:31:39.517Z,102458.00
2023-03-03T11:34:16.909Z,102457.56
2023-03-03T11:36:50.906Z,102459.09
2023-03-03T11:39:21.635Z,102447.28
2023-03-03T11:42:02.377Z,102445.66
2023-03-03T11:44:34.661Z,102448.28
2023-03-03T11:47:07.331Z,102447.00
2023-03-03T11:49:41.903Z,102441.81
2023-03-03T11:52:23.548Z,102439.03
2023-03-03T11:54:55.677Z,102438.28
2023-03-03T11:57:33.868Z,102436.72
2023-03-03T12:00:09.472Z,102431.47
2023-03-03T12:03:13.161Z,102430.44
2023-03-03T12:05:51.249Z,102427.97
2023-03-03T12:08:32.612Z,102430.09
2023-03-03T12:11:07.229Z,102430.53
2023-03-03T12:13:50.770Z,102421.06
2023-03-03T12:16:32.188Z,102417.31
2023-03-03T12:19:16.880Z,102412.94
2023-03-03T12:22:05.815Z,102422.97
2023-03-03T12:24:48.267Z,102426.03
2023-03-03T12:27:23.776Z,102414.84
2023-03-03T12:30:05.232Z,102415.41
2023-03-03T12:32:52.188Z,102414.06
2023-03-03T12:35:29.298Z,102401.50
2023-03-03T12:38:05.618Z,102400.25
2023-03-03T12:40:35.704Z,102396.97
2023-03-03T12:43:27.202Z,102396.03
2023-03-03T12:46:06.627Z,102391.56
2023-03-03T12:48:41.730Z,102391.47
2023-03-03T12:51:19.610Z,102389.41
2023-03-03T12:54:03.435Z,102390.84
2023-03-03T12:56:37.753Z,102381.88
2023-03-03T12:59:14.290Z,102388.19
2023-03-03T13:01:58.920Z,102390.13
2023-03-03T13:04:37.045Z,102379.22
2023-03-03T13:07:11.931Z,102385.78
2023-03-03T13:09:54.540Z,102385.19
2023-03-03T13:12:33.715Z,102393.06
2023-03-03T13:15:08.956Z,102385.34
2023-03-03T13:17:44.194Z,102376.97
2023-03-03T13:20:20.894Z,102383.75
2023-03-03T13:22:56.670Z,102377.44
2023-03-03T13:25:37.028Z,102381.47
2023-03-03T13:28:17.079Z,102380.09
2023-03-03T13:30:49.710Z,102374.59
2023-03-03T13:33:25.990Z,102366.59
2023-03-03T13:35:57.223Z,102370.78
2023-03-03T13:38:29.161Z,102368.66
2023-03-03T13:41:05.561Z,102364.94
2023-03-03T13:43:39.423Z,102363.28
2023-03-03T13:46:16.966Z,102360.63
2023-03-03T13:49:00.098Z,102354.66
2023-03-03T13:51:40.368Z,102353.06
2023-03-03T13:54:17.928Z,102345.97
2023-03-03T13:57:05.795Z,102350.44
2023-03-03T13:59:43.854Z,102344.19
2023-03-03T14:02:31.807Z,102339.66
2023-03-03T14:05:03.310Z,102346.63
2023-03-03T14:07:41.845Z,102345.75
2023-03-03T14:10:17.045Z,102343.13
2023-03-03T14:12:51.566Z,102330.75
2023-03-03T14:15:27.753Z,102334.44
2023-03-03T14:18:09.377Z,102336.56
2023-03-03T14:20:42.438Z,102326.00
2023-03-03T14:23:17.505Z,102327.91
2023-03-03T14:25:59.463Z,102328.00
2023-03-03T14:28:32.122Z,102333.28
2023-03-03T14:31:10.590Z,102325.28
2023-03-03T14:33:38.482Z,102322.53
2023-03-03T14:36:16.131Z,102324.34
2023-03-03T14:38:51.737Z,102317.31
2023-03-03T14:41:36.311Z,102319.34
2023-03-03T14:44:25.442Z,102313.16
2023-03-03T14:47:18.579Z,102311.94
2023-03-03T14:49:46.897Z,102308.41
2023-03-03T14:52:25.323Z,102310.53
2023-03-03T14:54:55.279Z,102313.97
2023-03-03T14:57:42.064Z,102306.84
2023-03-03T15:00:36.266Z,102304.97
2023-03-03T15:03:28.672Z,102307.84
2023-03-03T15:05:59.266Z,102298.69
2023-03-03T15:08:35.495Z,102290.00
2023-03-03T15:11:19.722Z,102296.28
2023-03-03T15:13:48.563Z,102296.19
2023-03-03T15:16:23.400Z,102295.97
2023-03-03T15:19:40.316Z,102296.66
2023-03-03T15:22:22.233Z,102288.81
2023-03-03T15:25:06.414Z,102286.13
2023-03-03T15:27:41.149Z,102278.94
2023-03-03T15:30:24.048Z,102282.56
2023-03-03T15:33:04.047Z,102274.56
2023-03-03T16:58:15.730Z,102285.72
2023-03-03T17:01:01.039Z,102287.44
2023-03-03T17:03:40.478Z,102288.16
2023-03-03T18:34:09.455Z,102339.13
2023-03-03T18:36:52.932Z,102334.78
2023-03-03T18:39:38.617Z,102336.56
2023-03-03T18:42:12.139Z,102348.16
2023-03-03T18:44:40.525Z,102339.19
2023-03-03T18:47:11.102Z,102341.88
2023-03-03T18:50:06.741Z,102346.31
2023-03-03T18:52:39.009Z,102348.09
2023-03-03T18:55:28.761Z,102350.78
2023-03-03T18:58:53.159Z,102348.94
2023-03-03T19:01:43.470Z,102355.94
2023-03-03T19:04:26.430Z,102352.44
2023-03-03T19:07:18.994Z,102351.69
2023-03-03T19:09:52.654Z,102359.66
2023-03-03T19:12:46.907Z,102363.25
2023-03-03T19:15:52.275Z,102365.00
2023-03-03T19:18:23.952Z,102371.84
2023-03-03T19:20:58.238Z,102368.38
2023-03-03T19:23:51.393Z,102366.69
2023-03-03T19:26:57.943Z,102367.72
2023-03-03T19:29:55.366Z,102358.97
2023-03-03T19:32:38.566Z,102351.91
2023-03-03T19:35:26.784Z,102358.13
2023-03-03T19:38:07.497Z,102348.34
2023-03-03T19:40:44.153Z,102351.97
2023-03-03T19:43:22.246Z,102352.94
2023-03-03T19:46:05.884Z,102351.19
2023-03-03T19:48:41.610Z,102352.94
2023-03-03T19:51:16.734Z,102352.94
2023-03-03T19:53:55.113Z,102354.59
2023-03-03T19:56:35.744Z,102350.91
2023-03-03T19:59:18.723Z,102348.84
2023-03-03T20:02:03.667Z,102350.56
2023-03-03T20:04:46.629Z,102340.91
2023-03-03T20:07:29.109Z,102346.13
2023-03-03T20:10:08.732Z,102348.94
2023-03-03T20:12:55.104Z,102346.34
2023-03-03T20:15:30.105Z,102356.19
2023-03-03T20:18:16.426Z,102356.19
2023-03-03T20:21:08.076Z,102354.41
2023-03-03T20:23:48.562Z,102362.31
2023-03-03T20:26:25.797Z,102368.50
2023-03-03T20:29:13.543Z,102366.75
2023-03-03T20:31:50.718Z,102374.50
2023-03-03T20:34:29.520Z,102377.31
2023-03-03T20:37:03.715Z,102376.22
2023-03-03T20:39:50.549Z,102372.72
2023-03-03T20:42:35.479Z,102367.44
2023-03-03T20:45:18.354Z,102374.38
2023-03-03T20:47:54.589Z,102366.22
2023-03-03T20:50:30.571Z,102381.28
2023-03-03T20:53:08.129Z,102384.91
2023-03-03T20:55:44.641Z,102376.78
2023-03-03T20:58:22.001Z,102386.59
2023-03-03T21:00:57.941Z,102382.78
2023-03-03T21:03:34.230Z,102386.31
2023-03-03T21:06:09.434Z,102384.59
2023-03-03T21:08:56.155Z,102389.06
2023-03-03T21:11:27.105Z,102382.72
2023-03-03T21:13:57.357Z,102379.13
2023-03-03T21:16:40.500Z,102380.22
2023-03-03T21:19:13.809Z,102387.25
2023-03-03T21:21:45.823Z,102384.63
2023-03-03T21:24:21.170Z,102383.63
2023-03-03T21:26:55.146Z,102381.66
2023-03-03T21:29:28.088Z,102385.25
2023-03-03T21:31:59.939Z,102381.72
2023-03-03T21:34:31.378Z,102386.03
2023-03-03T21:37:02.154Z,102385.81
2023-03-03T21:39:36.635Z,102375.19
2023-03-03T21:42:06.821Z,102375.22
2023-03-03T21:44:41.895Z,102379.00
2023-03-03T21:47:11.839Z,102380.88
2023-03-03T21:49:43.749Z,102378.91
2023-03-03T21:52:12.726Z,102384.13
2023-03-03T21:54:41.099Z,102382.22
2023-03-03T21:57:11.065Z,102385.88
2023-03-03T21:59:40.537Z,102380.72
2023-03-03T22:02:09.198Z,102381.56
2023-03-03T22:04:39.737Z,102387.63
2023-03-03T22:07:08.086Z,102383.19
2023-03-03T22:09:36.524Z,102391.94
2023-03-03T22:12:05.223Z,102392.75
2023-03-03T22:14:33.289Z,102380.41
2023-03-03T22:17:03.083Z,102388.47
2023-03-03T22:19:31.392Z,102380.91
2023-03-03T22:21:59.683Z,102386.19
2023-03-03T22:24:31.964Z,102381.84
2023-03-03T22:26:59.953Z,102380.78
2023-03-03T22:29:28.398Z,102382.56
2023-03-03T22:31:56.392Z,102374.38
2023-03-03T22:34:26.214Z,102374.47
2023-03-03T22:36:54.364Z,102374.44
2023-03-03T22:39:22.262Z,102368.34
2023-03-03T22:41:50.459Z,102372.03
2023-03-03T22:44:18.634Z,102372.94
2023-03-03T22:46:46.812Z,102373.00
2023-03-03T22:49:14.824Z,102378.53
2023-03-03T22:51:44.545Z,102375.00
2023-03-03T22:54:12.817Z,102375.94
2023-03-03T22:56:40.804Z,102369.88
2023-03-03T22:59:08.967Z,102364.59
2023-03-03T23:01:37.090Z,102370.91
2023-03-03T23:04:05.260Z,102367.44
2023-03-03T23:06:33.152Z,102370.19
2023-03-03T23:09:02.436Z,102370.19
2023-03-03T23:11:30.568Z,102375.50
2023-03-03T23:13:58.443Z,102375.59
2023-03-03T23:16:26.977Z,102370.22
2023-03-03T23:18:54.998Z,102369.22
2023-03-03T23:21:23.039Z,102370.94
2023-03-03T23:23:51.025Z,102371.69
2023-03-03T23:26:20.666Z,102375.28
2023-03-03T23:28:48.637Z,102369.16
2023-03-03T23:31:16.574Z,102367.53
2023-03-03T23:33:44.454Z,102368.50
2023-03-03T23:36:12.591Z,102374.66
2023-03-03T23:38:43.547Z,102364.00
2023-03-03T23:41:11.623Z,102362.31
2023-03-03T23:43:41.150Z,102361.38
2023-03-03T23:46:09.139Z,102363.28
2023-03-03T23:48:37.427Z,102367.66
2023-03-03T23:51:05.748Z,102368.56
2023-03-03T23:53:33.720Z,102358.94
2023-03-03T23:56:01.808Z,102366.97
2023-03-03T23:58:29.830Z,102369.56
